Terminal Aerodrome Forecast
Issued by NWS Bismarck, ND

Home | Current Version | Previous Version | Graphics & Text | Print | Product List | Glossary On
Versions: 1 2 3 4 5 6 7 8 9 10 11 12 13
000
FTUS43 KBIS 092300
TAFISN
TAF
KISN 092336Z 1000/1024 16006KT 6SM FU SKC
     FM101500 19016KT P6SM SCT150
     FM102300 23016KT P6SM VCTS BKN040CB=

USA.gov is the U.S. government's official web portal to all federal, state and local government web resources and services.